sensor_id;sensor_type;location;lat;lon;timestamp;P1;durP1;ratioP1;P2;durP2;ratioP2
26407;SDS011;14583;43.604;1.364;2024-01-07T00:00:34;9.15;;;3.28;;
26407;SDS011;14583;43.604;1.364;2024-01-07T00:03:00;6.15;;;3.80;;
26407;SDS011;14583;43.604;1.364;2024-01-07T00:05:26;10.50;;;3.85;;
26407;SDS011;14583;43.604;1.364;2024-01-07T00:07:51;6.85;;;3.53;;
26407;SDS011;14583;43.604;1.364;2024-01-07T00:10:17;6.47;;;3.70;;
26407;SDS011;14583;43.604;1.364;2024-01-07T00:12:43;6.03;;;3.78;;
26407;SDS011;14583;43.604;1.364;2024-01-07T00:15:09;6.25;;;3.72;;
26407;SDS011;14583;43.604;1.364;2024-01-07T00:17:35;6.57;;;3.63;;
26407;SDS011;14583;43.604;1.364;2024-01-07T00:20:00;7.35;;;3.80;;
26407;SDS011;14583;43.604;1.364;2024-01-07T00:22:26;5.63;;;3.40;;
26407;SDS011;14583;43.604;1.364;2024-01-07T00:24:52;7.80;;;3.40;;
26407;SDS011;14583;43.604;1.364;2024-01-07T00:27:17;7.47;;;3.67;;
26407;SDS011;14583;43.604;1.364;2024-01-07T00:29:43;7.60;;;3.90;;
26407;SDS011;14583;43.604;1.364;2024-01-07T00:32:09;7.85;;;3.72;;
26407;SDS011;14583;43.604;1.364;2024-01-07T00:34:34;6.13;;;3.72;;
26407;SDS011;14583;43.604;1.364;2024-01-07T00:37:00;9.02;;;3.90;;
26407;SDS011;14583;43.604;1.364;2024-01-07T00:39:25;5.82;;;3.80;;
26407;SDS011;14583;43.604;1.364;2024-01-07T00:41:51;10.02;;;4.25;;
26407;SDS011;14583;43.604;1.364;2024-01-07T00:44:17;7.45;;;3.53;;
26407;SDS011;14583;43.604;1.364;2024-01-07T00:46:42;6.28;;;3.58;;
26407;SDS011;14583;43.604;1.364;2024-01-07T00:49:08;5.50;;;3.75;;
26407;SDS011;14583;43.604;1.364;2024-01-07T00:51:34;6.85;;;3.70;;
26407;SDS011;14583;43.604;1.364;2024-01-07T00:53:59;7.35;;;3.83;;
26407;SDS011;14583;43.604;1.364;2024-01-07T00:56:25;11.23;;;3.92;;
26407;SDS011;14583;43.604;1.364;2024-01-07T00:58:51;8.10;;;4.53;;
26407;SDS011;14583;43.604;1.364;2024-01-07T01:01:17;8.80;;;4.43;;
26407;SDS011;14583;43.604;1.364;2024-01-07T01:03:43;7.63;;;3.83;;
26407;SDS011;14583;43.604;1.364;2024-01-07T01:06:08;9.20;;;4.00;;
26407;SDS011;14583;43.604;1.364;2024-01-07T01:08:34;9.88;;;4.20;;
26407;SDS011;14583;43.604;1.364;2024-01-07T01:11:00;7.45;;;4.13;;
26407;SDS011;14583;43.604;1.364;2024-01-07T01:13:25;8.85;;;4.05;;
26407;SDS011;14583;43.604;1.364;2024-01-07T01:15:51;8.82;;;4.20;;
26407;SDS011;14583;43.604;1.364;2024-01-07T01:18:17;10.93;;;4.60;;
26407;SDS011;14583;43.604;1.364;2024-01-07T01:20:43;9.35;;;4.30;;
26407;SDS011;14583;43.604;1.364;2024-01-07T01:23:08;6.97;;;3.88;;
26407;SDS011;14583;43.604;1.364;2024-01-07T01:25:34;8.32;;;4.25;;
26407;SDS011;14583;43.604;1.364;2024-01-07T01:28:01;6.70;;;4.25;;
26407;SDS011;14583;43.604;1.364;2024-01-07T01:30:26;12.20;;;4.63;;
26407;SDS011;14583;43.604;1.364;2024-01-07T01:32:55;8.50;;;4.20;;
26407;SDS011;14583;43.604;1.364;2024-01-07T01:35:21;6.85;;;4.28;;
26407;SDS011;14583;43.604;1.364;2024-01-07T01:37:47;8.18;;;4.50;;
26407;SDS011;14583;43.604;1.364;2024-01-07T01:40:12;5.53;;;3.92;;
26407;SDS011;14583;43.604;1.364;2024-01-07T01:42:38;8.98;;;4.30;;
26407;SDS011;14583;43.604;1.364;2024-01-07T01:45:08;7.55;;;4.50;;
26407;SDS011;14583;43.604;1.364;2024-01-07T01:47:33;6.68;;;4.20;;
26407;SDS011;14583;43.604;1.364;2024-01-07T01:49:59;9.80;;;4.57;;
26407;SDS011;14583;43.604;1.364;2024-01-07T01:52:25;6.90;;;4.20;;
26407;SDS011;14583;43.604;1.364;2024-01-07T01:54:52;11.68;;;4.40;;
26407;SDS011;14583;43.604;1.364;2024-01-07T01:57:19;9.38;;;4.03;;
26407;SDS011;14583;43.604;1.364;2024-01-07T01:59:49;8.75;;;4.82;;
26407;SDS011;14583;43.604;1.364;2024-01-07T02:02:15;11.10;;;4.45;;
26407;SDS011;14583;43.604;1.364;2024-01-07T02:04:41;10.77;;;4.72;;
26407;SDS011;14583;43.604;1.364;2024-01-07T02:07:06;6.45;;;4.32;;
26407;SDS011;14583;43.604;1.364;2024-01-07T02:09:32;6.80;;;4.57;;
26407;SDS011;14583;43.604;1.364;2024-01-07T02:12:04;8.23;;;4.50;;
26407;SDS011;14583;43.604;1.364;2024-01-07T02:14:30;10.30;;;4.87;;
26407;SDS011;14583;43.604;1.364;2024-01-07T02:16:56;10.55;;;4.68;;
26407;SDS011;14583;43.604;1.364;2024-01-07T02:19:22;8.85;;;4.68;;
26407;SDS011;14583;43.604;1.364;2024-01-07T02:21:49;9.48;;;4.65;;
26407;SDS011;14583;43.604;1.364;2024-01-07T02:24:16;8.50;;;4.85;;
26407;SDS011;14583;43.604;1.364;2024-01-07T02:26:42;11.90;;;4.57;;
26407;SDS011;14583;43.604;1.364;2024-01-07T02:29:07;10.30;;;4.38;;
26407;SDS011;14583;43.604;1.364;2024-01-07T02:31:33;9.70;;;5.10;;
26407;SDS011;14583;43.604;1.364;2024-01-07T02:33:59;9.40;;;4.60;;
26407;SDS011;14583;43.604;1.364;2024-01-07T02:36:24;7.53;;;4.45;;
26407;SDS011;14583;43.604;1.364;2024-01-07T02:38:50;7.85;;;5.05;;
26407;SDS011;14583;43.604;1.364;2024-01-07T02:41:15;8.13;;;4.93;;
26407;SDS011;14583;43.604;1.364;2024-01-07T02:43:41;8.88;;;4.88;;
26407;SDS011;14583;43.604;1.364;2024-01-07T02:46:07;10.00;;;5.47;;
26407;SDS011;14583;43.604;1.364;2024-01-07T02:48:33;9.05;;;5.05;;
26407;SDS011;14583;43.604;1.364;2024-01-07T02:50:59;9.55;;;4.57;;
26407;SDS011;14583;43.604;1.364;2024-01-07T02:53:25;11.38;;;4.88;;
26407;SDS011;14583;43.604;1.364;2024-01-07T02:55:51;9.98;;;5.32;;
26407;SDS011;14583;43.604;1.364;2024-01-07T02:58:16;7.28;;;4.38;;
26407;SDS011;14583;43.604;1.364;2024-01-07T03:00:42;10.45;;;4.75;;
26407;SDS011;14583;43.604;1.364;2024-01-07T03:03:08;13.25;;;4.60;;
26407;SDS011;14583;43.604;1.364;2024-01-07T03:05:33;11.38;;;5.25;;
26407;SDS011;14583;43.604;1.364;2024-01-07T03:07:59;6.38;;;4.63;;
26407;SDS011;14583;43.604;1.364;2024-01-07T03:10:25;7.97;;;4.60;;
26407;SDS011;14583;43.604;1.364;2024-01-07T03:12:51;9.55;;;4.57;;
26407;SDS011;14583;43.604;1.364;2024-01-07T03:15:17;7.18;;;4.35;;
26407;SDS011;14583;43.604;1.364;2024-01-07T03:17:42;7.53;;;4.13;;
26407;SDS011;14583;43.604;1.364;2024-01-07T03:20:09;5.22;;;4.03;;
26407;SDS011;14583;43.604;1.364;2024-01-07T03:22:35;8.82;;;4.45;;
26407;SDS011;14583;43.604;1.364;2024-01-07T03:25:01;5.50;;;3.97;;
26407;SDS011;14583;43.604;1.364;2024-01-07T03:27:26;8.18;;;4.68;;
26407;SDS011;14583;43.604;1.364;2024-01-07T03:29:52;6.70;;;4.35;;
26407;SDS011;14583;43.604;1.364;2024-01-07T03:32:17;11.23;;;4.55;;
26407;SDS011;14583;43.604;1.364;2024-01-07T03:34:43;9.02;;;4.43;;
26407;SDS011;14583;43.604;1.364;2024-01-07T03:37:09;6.43;;;4.40;;
26407;SDS011;14583;43.604;1.364;2024-01-07T03:39:35;9.38;;;4.55;;
26407;SDS011;14583;43.604;1.364;2024-01-07T03:42:01;11.02;;;4.53;;
26407;SDS011;14583;43.604;1.364;2024-01-07T03:44:26;7.70;;;4.40;;
26407;SDS011;14583;43.604;1.364;2024-01-07T03:46:52;8.55;;;4.50;;
26407;SDS011;14583;43.604;1.364;2024-01-07T03:49:18;6.22;;;4.00;;
26407;SDS011;14583;43.604;1.364;2024-01-07T03:51:43;11.70;;;4.53;;
26407;SDS011;14583;43.604;1.364;2024-01-07T03:54:10;8.35;;;4.13;;
26407;SDS011;14583;43.604;1.364;2024-01-07T03:56:36;7.15;;;3.95;;
26407;SDS011;14583;43.604;1.364;2024-01-07T03:59:02;5.82;;;4.28;;
26407;SDS011;14583;43.604;1.364;2024-01-07T04:01:27;6.15;;;4.00;;
26407;SDS011;14583;43.604;1.364;2024-01-07T04:03:53;8.05;;;4.03;;
26407;SDS011;14583;43.604;1.364;2024-01-07T04:06:19;7.10;;;4.15;;
26407;SDS011;14583;43.604;1.364;2024-01-07T04:08:45;10.90;;;3.92;;
26407;SDS011;14583;43.604;1.364;2024-01-07T04:11:11;10.10;;;4.30;;
26407;SDS011;14583;43.604;1.364;2024-01-07T04:13:36;5.22;;;3.38;;
26407;SDS011;14583;43.604;1.364;2024-01-07T04:16:02;6.95;;;3.97;;
26407;SDS011;14583;43.604;1.364;2024-01-07T04:18:29;7.72;;;4.50;;
26407;SDS011;14583;43.604;1.364;2024-01-07T04:20:54;7.70;;;4.13;;
26407;SDS011;14583;43.604;1.364;2024-01-07T04:23:20;9.00;;;4.20;;
26407;SDS011;14583;43.604;1.364;2024-01-07T04:25:46;7.88;;;4.07;;
26407;SDS011;14583;43.604;1.364;2024-01-07T04:28:11;4.70;;;3.80;;
26407;SDS011;14583;43.604;1.364;2024-01-07T04:30:37;6.93;;;4.00;;
26407;SDS011;14583;43.604;1.364;2024-01-07T04:33:03;7.35;;;4.03;;
26407;SDS011;14583;43.604;1.364;2024-01-07T04:35:29;6.85;;;3.80;;
26407;SDS011;14583;43.604;1.364;2024-01-07T04:37:54;5.65;;;4.22;;
26407;SDS011;14583;43.604;1.364;2024-01-07T04:40:20;6.57;;;3.40;;
26407;SDS011;14583;43.604;1.364;2024-01-07T04:42:46;12.80;;;4.47;;
26407;SDS011;14583;43.604;1.364;2024-01-07T04:45:11;6.93;;;4.43;;
26407;SDS011;14583;43.604;1.364;2024-01-07T04:47:37;5.38;;;4.05;;
26407;SDS011;14583;43.604;1.364;2024-01-07T04:50:03;5.32;;;4.05;;
26407;SDS011;14583;43.604;1.364;2024-01-07T04:52:29;5.95;;;3.95;;
26407;SDS011;14583;43.604;1.364;2024-01-07T04:54:55;9.73;;;4.80;;
26407;SDS011;14583;43.604;1.364;2024-01-07T04:57:21;11.23;;;4.47;;
26407;SDS011;14583;43.604;1.364;2024-01-07T04:59:48;9.13;;;4.13;;
26407;SDS011;14583;43.604;1.364;2024-01-07T05:02:14;7.25;;;4.35;;
26407;SDS011;14583;43.604;1.364;2024-01-07T05:04:40;7.30;;;4.10;;
26407;SDS011;14583;43.604;1.364;2024-01-07T05:07:06;6.95;;;4.70;;
26407;SDS011;14583;43.604;1.364;2024-01-07T05:09:32;6.75;;;4.20;;
26407;SDS011;14583;43.604;1.364;2024-01-07T05:11:58;7.07;;;4.50;;
26407;SDS011;14583;43.604;1.364;2024-01-07T05:14:24;6.88;;;4.38;;
26407;SDS011;14583;43.604;1.364;2024-01-07T05:16:50;7.55;;;4.90;;
26407;SDS011;14583;43.604;1.364;2024-01-07T05:19:16;7.63;;;4.35;;
26407;SDS011;14583;43.604;1.364;2024-01-07T05:21:42;8.30;;;4.57;;
26407;SDS011;14583;43.604;1.364;2024-01-07T05:24:07;7.10;;;4.03;;
26407;SDS011;14583;43.604;1.364;2024-01-07T05:26:39;6.68;;;4.47;;
26407;SDS011;14583;43.604;1.364;2024-01-07T05:29:09;8.15;;;4.22;;
26407;SDS011;14583;43.604;1.364;2024-01-07T05:31:35;10.98;;;5.40;;
26407;SDS011;14583;43.604;1.364;2024-01-07T05:34:01;9.50;;;5.65;;
26407;SDS011;14583;43.604;1.364;2024-01-07T05:36:26;7.65;;;4.80;;
26407;SDS011;14583;43.604;1.364;2024-01-07T05:38:52;7.15;;;4.78;;
26407;SDS011;14583;43.604;1.364;2024-01-07T05:41:18;10.30;;;4.75;;
26407;SDS011;14583;43.604;1.364;2024-01-07T05:43:43;9.55;;;5.07;;
26407;SDS011;14583;43.604;1.364;2024-01-07T05:46:09;7.85;;;4.60;;
26407;SDS011;14583;43.604;1.364;2024-01-07T05:48:49;6.47;;;4.40;;
26407;SDS011;14583;43.604;1.364;2024-01-07T05:51:15;7.97;;;4.90;;
26407;SDS011;14583;43.604;1.364;2024-01-07T05:53:42;6.22;;;4.60;;
26407;SDS011;14583;43.604;1.364;2024-01-07T05:56:09;11.82;;;4.88;;
26407;SDS011;14583;43.604;1.364;2024-01-07T05:58:35;7.35;;;4.57;;
26407;SDS011;14583;43.604;1.364;2024-01-07T06:01:01;8.52;;;4.80;;
26407;SDS011;14583;43.604;1.364;2024-01-07T06:03:26;5.50;;;4.45;;
26407;SDS011;14583;43.604;1.364;2024-01-07T06:05:52;8.07;;;4.82;;
26407;SDS011;14583;43.604;1.364;2024-01-07T06:08:18;8.57;;;4.55;;
26407;SDS011;14583;43.604;1.364;2024-01-07T06:10:43;8.27;;;4.82;;
26407;SDS011;14583;43.604;1.364;2024-01-07T06:13:09;7.22;;;4.68;;
26407;SDS011;14583;43.604;1.364;2024-01-07T06:15:35;5.28;;;3.90;;
26407;SDS011;14583;43.604;1.364;2024-01-07T06:18:01;5.47;;;4.30;;
26407;SDS011;14583;43.604;1.364;2024-01-07T06:20:27;8.55;;;4.55;;
26407;SDS011;14583;43.604;1.364;2024-01-07T06:22:53;8.70;;;4.38;;
26407;SDS011;14583;43.604;1.364;2024-01-07T06:25:19;5.03;;;3.72;;
26407;SDS011;14583;43.604;1.364;2024-01-07T06:27:45;6.57;;;3.72;;
26407;SDS011;14583;43.604;1.364;2024-01-07T06:30:11;6.30;;;4.20;;
26407;SDS011;14583;43.604;1.364;2024-01-07T06:32:37;6.88;;;3.92;;
26407;SDS011;14583;43.604;1.364;2024-01-07T06:35:03;7.00;;;3.90;;
26407;SDS011;14583;43.604;1.364;2024-01-07T06:37:29;5.85;;;3.60;;
26407;SDS011;14583;43.604;1.364;2024-01-07T06:39:55;4.35;;;3.30;;
26407;SDS011;14583;43.604;1.364;2024-01-07T06:42:23;6.65;;;3.50;;
26407;SDS011;14583;43.604;1.364;2024-01-07T06:44:49;4.32;;;3.80;;
26407;SDS011;14583;43.604;1.364;2024-01-07T06:47:15;5.20;;;3.55;;
26407;SDS011;14583;43.604;1.364;2024-01-07T06:49:40;5.32;;;3.70;;
26407;SDS011;14583;43.604;1.364;2024-01-07T06:52:06;5.93;;;3.40;;
26407;SDS011;14583;43.604;1.364;2024-01-07T06:54:32;9.13;;;3.85;;
26407;SDS011;14583;43.604;1.364;2024-01-07T06:56:58;6.05;;;3.85;;
26407;SDS011;14583;43.604;1.364;2024-01-07T06:59:23;4.85;;;3.83;;
26407;SDS011;14583;43.604;1.364;2024-01-07T07:01:49;6.53;;;4.30;;
26407;SDS011;14583;43.604;1.364;2024-01-07T07:04:15;9.45;;;4.00;;
26407;SDS011;14583;43.604;1.364;2024-01-07T07:06:40;5.15;;;3.63;;
26407;SDS011;14583;43.604;1.364;2024-01-07T07:09:06;6.53;;;4.43;;
26407;SDS011;14583;43.604;1.364;2024-01-07T07:11:32;5.65;;;3.65;;
26407;SDS011;14583;43.604;1.364;2024-01-07T07:13:57;4.88;;;3.20;;
26407;SDS011;14583;43.604;1.364;2024-01-07T07:16:23;5.28;;;3.55;;
26407;SDS011;14583;43.604;1.364;2024-01-07T07:18:50;4.78;;;3.55;;
26407;SDS011;14583;43.604;1.364;2024-01-07T07:21:16;5.40;;;3.63;;
26407;SDS011;14583;43.604;1.364;2024-01-07T07:23:41;4.70;;;3.58;;
26407;SDS011;14583;43.604;1.364;2024-01-07T07:26:07;5.88;;;3.30;;
26407;SDS011;14583;43.604;1.364;2024-01-07T07:28:33;4.30;;;3.30;;
26407;SDS011;14583;43.604;1.364;2024-01-07T07:30:59;4.10;;;3.05;;
26407;SDS011;14583;43.604;1.364;2024-01-07T07:33:24;9.15;;;4.38;;
26407;SDS011;14583;43.604;1.364;2024-01-07T07:35:50;5.15;;;3.75;;
26407;SDS011;14583;43.604;1.364;2024-01-07T07:38:16;6.07;;;3.92;;
26407;SDS011;14583;43.604;1.364;2024-01-07T07:40:41;5.25;;;3.70;;
26407;SDS011;14583;43.604;1.364;2024-01-07T07:43:07;7.63;;;3.92;;
26407;SDS011;14583;43.604;1.364;2024-01-07T07:45:33;7.97;;;3.88;;
26407;SDS011;14583;43.604;1.364;2024-01-07T07:47:59;5.85;;;4.03;;
26407;SDS011;14583;43.604;1.364;2024-01-07T07:50:25;7.22;;;4.05;;
26407;SDS011;14583;43.604;1.364;2024-01-07T07:52:51;5.35;;;4.05;;
26407;SDS011;14583;43.604;1.364;2024-01-07T07:55:16;6.10;;;3.97;;
26407;SDS011;14583;43.604;1.364;2024-01-07T07:57:42;5.57;;;3.83;;
26407;SDS011;14583;43.604;1.364;2024-01-07T08:00:08;4.15;;;3.70;;
26407;SDS011;14583;43.604;1.364;2024-01-07T08:02:37;5.72;;;3.10;;
26407;SDS011;14583;43.604;1.364;2024-01-07T08:05:04;4.85;;;3.33;;
26407;SDS011;14583;43.604;1.364;2024-01-07T08:07:30;7.28;;;3.60;;
26407;SDS011;14583;43.604;1.364;2024-01-07T08:09:55;8.30;;;3.95;;
26407;SDS011;14583;43.604;1.364;2024-01-07T08:12:22;5.53;;;4.00;;
26407;SDS011;14583;43.604;1.364;2024-01-07T08:14:48;6.35;;;4.28;;
26407;SDS011;14583;43.604;1.364;2024-01-07T08:17:14;10.45;;;4.05;;
26407;SDS011;14583;43.604;1.364;2024-01-07T08:19:40;7.85;;;4.38;;
26407;SDS011;14583;43.604;1.364;2024-01-07T08:22:05;7.65;;;3.97;;
26407;SDS011;14583;43.604;1.364;2024-01-07T08:24:31;9.77;;;4.50;;
26407;SDS011;14583;43.604;1.364;2024-01-07T08:26:57;7.50;;;4.00;;
26407;SDS011;14583;43.604;1.364;2024-01-07T08:29:23;7.63;;;3.97;;
26407;SDS011;14583;43.604;1.364;2024-01-07T08:31:48;6.00;;;4.05;;
26407;SDS011;14583;43.604;1.364;2024-01-07T08:34:14;6.15;;;3.92;;
26407;SDS011;14583;43.604;1.364;2024-01-07T08:36:40;5.35;;;3.80;;
26407;SDS011;14583;43.604;1.364;2024-01-07T08:39:06;6.63;;;3.92;;
26407;SDS011;14583;43.604;1.364;2024-01-07T08:41:33;6.35;;;4.28;;
26407;SDS011;14583;43.604;1.364;2024-01-07T08:43:59;6.07;;;4.38;;
26407;SDS011;14583;43.604;1.364;2024-01-07T08:46:25;7.15;;;4.80;;
26407;SDS011;14583;43.604;1.364;2024-01-07T08:48:50;9.70;;;4.32;;
26407;SDS011;14583;43.604;1.364;2024-01-07T08:51:16;6.50;;;4.07;;
26407;SDS011;14583;43.604;1.364;2024-01-07T08:53:42;7.18;;;3.97;;
26407;SDS011;14583;43.604;1.364;2024-01-07T08:56:07;13.32;;;4.43;;
26407;SDS011;14583;43.604;1.364;2024-01-07T08:58:33;5.78;;;3.88;;
26407;SDS011;14583;43.604;1.364;2024-01-07T09:00:59;6.45;;;4.07;;
26407;SDS011;14583;43.604;1.364;2024-01-07T09:03:25;6.78;;;3.90;;
26407;SDS011;14583;43.604;1.364;2024-01-07T09:05:50;7.28;;;4.40;;
26407;SDS011;14583;43.604;1.364;2024-01-07T09:08:16;6.85;;;4.25;;
26407;SDS011;14583;43.604;1.364;2024-01-07T09:10:42;6.20;;;4.30;;
26407;SDS011;14583;43.604;1.364;2024-01-07T09:13:08;8.18;;;4.18;;
26407;SDS011;14583;43.604;1.364;2024-01-07T09:15:33;6.13;;;4.10;;
26407;SDS011;14583;43.604;1.364;2024-01-07T09:17:59;5.82;;;4.30;;
26407;SDS011;14583;43.604;1.364;2024-01-07T09:20:25;5.82;;;4.18;;
26407;SDS011;14583;43.604;1.364;2024-01-07T09:22:50;8.10;;;4.40;;
26407;SDS011;14583;43.604;1.364;2024-01-07T09:25:16;8.73;;;4.25;;
26407;SDS011;14583;43.604;1.364;2024-01-07T09:27:42;6.97;;;3.95;;
26407;SDS011;14583;43.604;1.364;2024-01-07T09:30:08;6.45;;;4.38;;
26407;SDS011;14583;43.604;1.364;2024-01-07T09:32:40;7.43;;;4.40;;
26407;SDS011;14583;43.604;1.364;2024-01-07T09:35:06;6.47;;;4.18;;
26407;SDS011;14583;43.604;1.364;2024-01-07T09:37:32;6.88;;;4.32;;
26407;SDS011;14583;43.604;1.364;2024-01-07T09:39:57;6.63;;;4.10;;
26407;SDS011;14583;43.604;1.364;2024-01-07T09:42:23;6.55;;;4.30;;
26407;SDS011;14583;43.604;1.364;2024-01-07T09:44:50;8.07;;;4.03;;
26407;SDS011;14583;43.604;1.364;2024-01-07T09:47:16;5.22;;;3.78;;
26407;SDS011;14583;43.604;1.364;2024-01-07T09:49:42;5.85;;;3.70;;
26407;SDS011;14583;43.604;1.364;2024-01-07T09:52:09;8.45;;;4.05;;
26407;SDS011;14583;43.604;1.364;2024-01-07T09:54:36;6.13;;;3.70;;
26407;SDS011;14583;43.604;1.364;2024-01-07T09:57:08;6.30;;;4.15;;
26407;SDS011;14583;43.604;1.364;2024-01-07T09:59:35;6.47;;;4.10;;
26407;SDS011;14583;43.604;1.364;2024-01-07T10:02:04;7.72;;;4.65;;
26407;SDS011;14583;43.604;1.364;2024-01-07T10:04:30;7.05;;;4.15;;
26407;SDS011;14583;43.604;1.364;2024-01-07T10:06:56;8.65;;;4.35;;
26407;SDS011;14583;43.604;1.364;2024-01-07T10:09:22;6.20;;;3.75;;
26407;SDS011;14583;43.604;1.364;2024-01-07T10:12:08;8.70;;;4.05;;
26407;SDS011;14583;43.604;1.364;2024-01-07T10:14:35;6.55;;;4.15;;
26407;SDS011;14583;43.604;1.364;2024-01-07T10:17:00;6.45;;;4.03;;
26407;SDS011;14583;43.604;1.364;2024-01-07T10:19:26;6.53;;;4.13;;
26407;SDS011;14583;43.604;1.364;2024-01-07T10:22:01;6.85;;;4.03;;
26407;SDS011;14583;43.604;1.364;2024-01-07T10:24:35;5.72;;;3.70;;
26407;SDS011;14583;43.604;1.364;2024-01-07T10:27:05;8.15;;;3.85;;
26407;SDS011;14583;43.604;1.364;2024-01-07T10:29:31;5.85;;;3.85;;
26407;SDS011;14583;43.604;1.364;2024-01-07T10:32:00;4.13;;;3.40;;
26407;SDS011;14583;43.604;1.364;2024-01-07T10:34:29;6.20;;;3.45;;
26407;SDS011;14583;43.604;1.364;2024-01-07T10:36:56;6.95;;;3.97;;
26407;SDS011;14583;43.604;1.364;2024-01-07T10:39:25;5.95;;;3.75;;
26407;SDS011;14583;43.604;1.364;2024-01-07T10:41:51;7.30;;;4.32;;
26407;SDS011;14583;43.604;1.364;2024-01-07T10:44:25;5.57;;;3.50;;
26407;SDS011;14583;43.604;1.364;2024-01-07T10:46:53;5.03;;;3.50;;
26407;SDS011;14583;43.604;1.364;2024-01-07T10:49:21;5.85;;;3.65;;
26407;SDS011;14583;43.604;1.364;2024-01-07T10:54:34;9.40;;;4.13;;
26407;SDS011;14583;43.604;1.364;2024-01-07T10:59:48;6.10;;;4.35;;
26407;SDS011;14583;43.604;1.364;2024-01-07T11:02:16;9.77;;;3.75;;
26407;SDS011;14583;43.604;1.364;2024-01-07T11:04:45;7.47;;;3.08;;
26407;SDS011;14583;43.604;1.364;2024-01-07T11:07:38;5.63;;;3.88;;
26407;SDS011;14583;43.604;1.364;2024-01-07T11:10:20;5.53;;;3.33;;
26407;SDS011;14583;43.604;1.364;2024-01-07T11:12:55;6.47;;;3.50;;
26407;SDS011;14583;43.604;1.364;2024-01-07T11:18:18;8.32;;;3.17;;
26407;SDS011;14583;43.604;1.364;2024-01-07T11:20:44;7.25;;;3.63;;
26407;SDS011;14583;43.604;1.364;2024-01-07T11:25:59;6.32;;;3.33;;
26407;SDS011;14583;43.604;1.364;2024-01-07T11:31:42;6.07;;;3.63;;
26407;SDS011;14583;43.604;1.364;2024-01-07T11:34:07;5.53;;;3.65;;
26407;SDS011;14583;43.604;1.364;2024-01-07T11:36:36;8.60;;;3.78;;
26407;SDS011;14583;43.604;1.364;2024-01-07T11:39:02;5.28;;;3.42;;
26407;SDS011;14583;43.604;1.364;2024-01-07T11:41:29;4.18;;;3.20;;
26407;SDS011;14583;43.604;1.364;2024-01-07T11:43:58;6.85;;;3.47;;
26407;SDS011;14583;43.604;1.364;2024-01-07T11:46:25;7.78;;;3.90;;
26407;SDS011;14583;43.604;1.364;2024-01-07T11:48:58;7.28;;;3.63;;
26407;SDS011;14583;43.604;1.364;2024-01-07T11:51:27;7.40;;;4.00;;
26407;SDS011;14583;43.604;1.364;2024-01-07T11:53:55;5.20;;;3.42;;
26407;SDS011;14583;43.604;1.364;2024-01-07T11:56:25;7.38;;;3.67;;
26407;SDS011;14583;43.604;1.364;2024-01-07T11:58:51;6.65;;;3.40;;
26407;SDS011;14583;43.604;1.364;2024-01-07T12:01:17;4.50;;;3.30;;
26407;SDS011;14583;43.604;1.364;2024-01-07T12:03:44;6.72;;;3.85;;
26407;SDS011;14583;43.604;1.364;2024-01-07T12:06:10;6.68;;;3.92;;
26407;SDS011;14583;43.604;1.364;2024-01-07T12:08:45;7.28;;;3.75;;
26407;SDS011;14583;43.604;1.364;2024-01-07T12:11:11;13.20;;;3.28;;
26407;SDS011;14583;43.604;1.364;2024-01-07T12:13:38;6.28;;;3.53;;
26407;SDS011;14583;43.604;1.364;2024-01-07T12:16:05;6.22;;;3.58;;
26407;SDS011;14583;43.604;1.364;2024-01-07T12:18:32;7.00;;;4.25;;
26407;SDS011;14583;43.604;1.364;2024-01-07T12:20:58;5.35;;;3.47;;
26407;SDS011;14583;43.604;1.364;2024-01-07T12:23:25;7.15;;;3.22;;
26407;SDS011;14583;43.604;1.364;2024-01-07T12:25:52;6.35;;;3.40;;
26407;SDS011;14583;43.604;1.364;2024-01-07T12:28:18;9.63;;;3.90;;
26407;SDS011;14583;43.604;1.364;2024-01-07T12:30:44;5.22;;;3.35;;
26407;SDS011;14583;43.604;1.364;2024-01-07T12:33:15;11.90;;;5.75;;
26407;SDS011;14583;43.604;1.364;2024-01-07T12:35:44;5.45;;;3.40;;
26407;SDS011;14583;43.604;1.364;2024-01-07T12:38:12;8.73;;;3.90;;
26407;SDS011;14583;43.604;1.364;2024-01-07T12:40:37;8.55;;;3.63;;
26407;SDS011;14583;43.604;1.364;2024-01-07T12:43:04;5.43;;;3.63;;
26407;SDS011;14583;43.604;1.364;2024-01-07T12:45:31;4.85;;;3.40;;
26407;SDS011;14583;43.604;1.364;2024-01-07T12:47:58;6.38;;;3.65;;
26407;SDS011;14583;43.604;1.364;2024-01-07T12:50:27;4.53;;;3.30;;
26407;SDS011;14583;43.604;1.364;2024-01-07T12:52:54;5.57;;;3.38;;
26407;SDS011;14583;43.604;1.364;2024-01-07T12:55:20;5.35;;;3.25;;
26407;SDS011;14583;43.604;1.364;2024-01-07T12:57:47;5.93;;;3.05;;
26407;SDS011;14583;43.604;1.364;2024-01-07T13:00:13;7.07;;;3.88;;
26407;SDS011;14583;43.604;1.364;2024-01-07T13:02:39;4.85;;;3.58;;
26407;SDS011;14583;43.604;1.364;2024-01-07T13:05:05;7.05;;;3.85;;
26407;SDS011;14583;43.604;1.364;2024-01-07T13:07:31;7.15;;;3.40;;
26407;SDS011;14583;43.604;1.364;2024-01-07T13:09:57;6.45;;;3.20;;
26407;SDS011;14583;43.604;1.364;2024-01-07T13:12:23;5.30;;;3.20;;
26407;SDS011;14583;43.604;1.364;2024-01-07T13:14:49;5.97;;;3.20;;
26407;SDS011;14583;43.604;1.364;2024-01-07T13:17:15;6.93;;;3.17;;
26407;SDS011;14583;43.604;1.364;2024-01-07T13:19:41;6.18;;;3.13;;
26407;SDS011;14583;43.604;1.364;2024-01-07T13:22:07;5.35;;;3.22;;
26407;SDS011;14583;43.604;1.364;2024-01-07T13:24:34;6.82;;;2.90;;
26407;SDS011;14583;43.604;1.364;2024-01-07T13:27:00;8.75;;;2.92;;
26407;SDS011;14583;43.604;1.364;2024-01-07T13:29:26;5.07;;;3.00;;
26407;SDS011;14583;43.604;1.364;2024-01-07T13:31:51;4.97;;;2.63;;
26407;SDS011;14583;43.604;1.364;2024-01-07T13:34:17;4.30;;;2.85;;
26407;SDS011;14583;43.604;1.364;2024-01-07T13:36:43;4.90;;;2.60;;
26407;SDS011;14583;43.604;1.364;2024-01-07T13:39:09;9.23;;;3.15;;
26407;SDS011;14583;43.604;1.364;2024-01-07T13:41:35;4.43;;;2.70;;
26407;SDS011;14583;43.604;1.364;2024-01-07T13:44:01;3.40;;;2.40;;
26407;SDS011;14583;43.604;1.364;2024-01-07T13:46:30;3.50;;;2.50;;
26407;SDS011;14583;43.604;1.364;2024-01-07T13:48:56;5.85;;;2.63;;
26407;SDS011;14583;43.604;1.364;2024-01-07T13:51:21;6.93;;;2.97;;
26407;SDS011;14583;43.604;1.364;2024-01-07T13:53:47;4.15;;;2.50;;
26407;SDS011;14583;43.604;1.364;2024-01-07T13:56:13;6.00;;;2.65;;
26407;SDS011;14583;43.604;1.364;2024-01-07T13:58:38;5.00;;;2.50;;
26407;SDS011;14583;43.604;1.364;2024-01-07T14:01:04;5.32;;;2.55;;
26407;SDS011;14583;43.604;1.364;2024-01-07T14:03:33;2.95;;;1.90;;
26407;SDS011;14583;43.604;1.364;2024-01-07T14:05:59;6.18;;;2.40;;
26407;SDS011;14583;43.604;1.364;2024-01-07T14:08:25;4.30;;;2.10;;
26407;SDS011;14583;43.604;1.364;2024-01-07T14:10:51;4.55;;;2.50;;
26407;SDS011;14583;43.604;1.364;2024-01-07T14:13:17;5.00;;;2.38;;
26407;SDS011;14583;43.604;1.364;2024-01-07T14:15:44;2.60;;;2.08;;
26407;SDS011;14583;43.604;1.364;2024-01-07T14:18:09;4.90;;;2.35;;
26407;SDS011;14583;43.604;1.364;2024-01-07T14:20:40;5.35;;;2.20;;
26407;SDS011;14583;43.604;1.364;2024-01-07T14:23:05;3.22;;;2.10;;
26407;SDS011;14583;43.604;1.364;2024-01-07T14:25:31;4.13;;;2.40;;
26407;SDS011;14583;43.604;1.364;2024-01-07T14:27:57;5.93;;;2.53;;
26407;SDS011;14583;43.604;1.364;2024-01-07T14:30:22;6.35;;;2.78;;
26407;SDS011;14583;43.604;1.364;2024-01-07T14:32:48;3.13;;;2.33;;
26407;SDS011;14583;43.604;1.364;2024-01-07T14:35:15;6.82;;;2.70;;
26407;SDS011;14583;43.604;1.364;2024-01-07T14:37:41;5.72;;;2.35;;
26407;SDS011;14583;43.604;1.364;2024-01-07T14:40:07;6.32;;;2.08;;
26407;SDS011;14583;43.604;1.364;2024-01-07T14:42:33;5.50;;;2.28;;
26407;SDS011;14583;43.604;1.364;2024-01-07T14:44:59;4.93;;;2.60;;
26407;SDS011;14583;43.604;1.364;2024-01-07T14:47:25;5.60;;;2.38;;
26407;SDS011;14583;43.604;1.364;2024-01-07T14:49:50;4.95;;;2.58;;
26407;SDS011;14583;43.604;1.364;2024-01-07T14:52:16;4.15;;;2.30;;
26407;SDS011;14583;43.604;1.364;2024-01-07T14:54:41;3.75;;;2.35;;